Time;durP1;ratioP1;P1;durP2;ratioP2;P2;SDS_P1;SDS_P2;PMS_P1;PMS_P2;Temp;Humidity;BMP_temperature;BMP_pressure;BME280_temperature;BME280_humidity;BME280_pressure;Samples;Min_cycle;Max_cycle;Signal;HPM_P1;HPM_P2
2023/01/06 04:02:27;;;;;;;11.35;5.22;;;10.50;99.90;;;;;;6034622;23;20448;-78
2023/01/06 04:05:09;;;;;;;9.80;5.07;;;10.50;99.90;;;;;;6016769;23;20090;-77
2023/01/06 04:07:34;;;;;;;8.65;5.00;;;10.50;99.90;;;;;;6042814;23;20132;-79
2023/01/06 04:10:00;;;;;;;11.80;5.45;;;10.50;99.90;;;;;;6017555;23;20019;-76
2023/01/06 04:12:38;;;;;;;10.35;4.70;;;10.40;99.90;;;;;;6015044;23;20067;-77
2023/01/06 04:15:05;;;;;;;9.68;4.90;;;10.40;99.90;;;;;;6013487;23;20015;-77
2023/01/06 04:17:31;;;;;;;8.38;4.30;;;10.40;99.90;;;;;;5988577;23;20016;-77
2023/01/06 04:19:57;;;;;;;6.53;3.72;;;10.40;99.90;;;;;;6014156;23;20075;-79
2023/01/06 04:22:22;;;;;;;9.32;4.30;;;10.40;99.90;;;;;;5989210;23;20338;-76
2023/01/06 04:24:48;;;;;;;9.32;3.70;;;10.40;99.90;;;;;;6014642;23;20016;-78
2023/01/06 04:27:13;;;;;;;6.90;3.03;;;10.50;99.90;;;;;;6015112;23;20012;-77
2023/01/06 04:29:39;;;;;;;5.85;3.63;;;10.50;99.90;;;;;;5989806;23;20446;-77
2023/01/06 04:32:05;;;;;;;5.75;3.38;;;10.50;99.90;;;;;;5966222;23;20083;-76
2023/01/06 04:34:30;;;;;;;9.77;3.40;;;10.50;99.90;;;;;;6015147;23;20016;-78
2023/01/06 04:36:56;;;;;;;10.73;3.35;;;10.40;99.90;;;;;;6015028;23;20016;-76
2023/01/06 04:39:21;;;;;;;7.68;3.40;;;10.50;99.90;;;;;;5988188;23;20086;-77
2023/01/06 04:41:47;;;;;;;6.22;2.88;;;10.50;99.90;;;;;;5988698;23;20064;-78
2023/01/06 04:44:13;;;;;;;7.68;3.20;;;10.50;99.90;;;;;;5964970;23;20015;-78
2023/01/06 04:46:39;;;;;;;6.45;3.50;;;10.50;99.90;;;;;;5989509;23;20022;-77
2023/01/06 04:49:04;;;;;;;6.80;3.00;;;10.50;99.90;;;;;;5988868;23;20024;-77
2023/01/06 04:51:30;;;;;;;8.93;3.28;;;10.50;99.90;;;;;;5988480;23;20015;-78
2023/01/06 04:53:55;;;;;;;5.00;2.80;;;10.50;99.90;;;;;;6013920;23;20343;-77
2023/01/06 04:56:21;;;;;;;7.10;2.95;;;10.50;99.90;;;;;;6014050;23;20012;-77
2023/01/06 04:58:47;;;;;;;7.35;2.88;;;10.50;99.90;;;;;;5987948;23;20020;-75
2023/01/06 05:01:13;;;;;;;8.07;3.65;;;10.50;99.90;;;;;;5987521;23;20016;-77
2023/01/06 05:03:39;;;;;;;6.47;3.15;;;10.50;99.90;;;;;;5989221;23;20015;-78
2023/01/06 05:06:10;;;;;;;7.63;3.50;;;10.50;99.90;;;;;;5965189;23;20097;-77
2023/01/06 05:08:41;;;;;;;4.38;3.00;;;10.60;99.90;;;;;;5988860;23;20446;-77
2023/01/06 05:11:14;;;;;;;6.38;3.28;;;10.50;99.90;;;;;;6013740;23;20016;-77
2023/01/06 05:13:40;;;;;;;7.40;3.58;;;10.50;99.90;;;;;;5964548;23;20461;-76
2023/01/06 05:16:09;;;;;;;8.18;4.25;;;10.50;99.90;;;;;;6012999;23;20051;-77
2023/01/06 05:18:35;;;;;;;7.32;4.47;;;10.50;99.90;;;;;;5964428;23;20027;-77
2023/01/06 05:21:01;;;;;;;8.55;4.55;;;10.40;99.90;;;;;;6012920;23;20033;-77
2023/01/06 05:23:27;;;;;;;7.88;4.72;;;10.40;99.90;;;;;;5987828;23;20020;-77
2023/01/06 05:25:52;;;;;;;7.22;4.47;;;10.40;99.90;;;;;;5964256;23;20091;-76
2023/01/06 05:28:19;;;;;;;6.47;4.43;;;10.40;99.90;;;;;;5987384;23;20020;-75
2023/01/06 05:30:44;;;;;;;7.43;4.25;;;10.40;99.90;;;;;;5987530;23;20403;-77
2023/01/06 05:33:10;;;;;;;9.15;4.68;;;10.40;99.90;;;;;;5987406;23;20016;-74
2023/01/06 05:35:36;;;;;;;7.50;4.07;;;10.40;99.90;;;;;;6012410;23;20016;-77
2023/01/06 05:38:01;;;;;;;7.47;4.75;;;10.40;99.90;;;;;;5987510;23;20030;-76
2023/01/06 05:40:28;;;;;;;8.40;4.53;;;10.30;99.90;;;;;;5987271;23;20016;-77
2023/01/06 05:42:57;;;;;;;8.10;3.67;;;10.40;99.90;;;;;;5987981;23;20016;-76
2023/01/06 05:45:24;;;;;;;8.10;4.95;;;10.40;99.90;;;;;;5989014;23;20022;-78
2023/01/06 05:47:50;;;;;;;9.15;3.65;;;10.30;99.90;;;;;;5988826;23;20026;-78
2023/01/06 05:50:16;;;;;;;9.38;4.38;;;10.40;99.90;;;;;;6013424;23;20338;-76
2023/01/06 05:52:42;;;;;;;6.18;3.30;;;10.40;99.90;;;;;;5964160;23;20023;-75
2023/01/06 05:55:08;;;;;;;6.32;4.25;;;10.30;99.90;;;;;;6012464;23;20015;-77
2023/01/06 05:57:35;;;;;;;6.60;4.03;;;10.30;99.90;;;;;;5988339;23;20341;-75
2023/01/06 06:00:04;;;;;;;7.47;4.78;;;10.30;99.90;;;;;;5988153;23;20027;-77
2023/01/06 06:02:29;;;;;;;10.60;5.00;;;10.20;99.90;;;;;;6012763;23;20015;-77
2023/01/06 06:04:55;;;;;;;9.63;4.72;;;10.20;99.90;;;;;;6012913;23;20486;-76
2023/01/06 06:07:21;;;;;;;8.70;4.57;;;10.20;99.90;;;;;;5987386;23;20106;-77
2023/01/06 06:09:46;;;;;;;9.13;4.60;;;10.20;99.90;;;;;;6012734;23;20011;-77
2023/01/06 06:12:12;;;;;;;11.55;5.43;;;10.10;99.90;;;;;;5987076;23;20019;-77
2023/01/06 06:14:38;;;;;;;9.90;5.63;;;10.10;99.90;;;;;;6011960;23;20348;-77
2023/01/06 06:17:03;;;;;;;9.15;5.88;;;10.10;99.90;;;;;;5987301;23;20019;-76
2023/01/06 06:19:29;;;;;;;12.52;6.30;;;10.10;99.90;;;;;;6012429;23;20012;-76
2023/01/06 06:21:55;;;;;;;11.73;5.75;;;10.00;99.90;;;;;;6013159;23;20027;-76
2023/01/06 06:24:20;;;;;;;11.45;5.72;;;10.00;99.90;;;;;;5987251;23;20012;-76
2023/01/06 06:26:46;;;;;;;13.02;7.25;;;10.00;99.90;;;;;;5987014;23;20137;-76
2023/01/06 06:29:11;;;;;;;11.75;6.75;;;9.90;99.90;;;;;;5987238;23;20091;-77
2023/01/06 06:31:37;;;;;;;12.43;7.00;;;9.90;99.90;;;;;;5987086;23;20015;-77
2023/01/06 06:34:03;;;;;;;11.40;6.80;;;9.90;99.90;;;;;;6012295;23;20319;-76
2023/01/06 06:36:30;;;;;;;15.07;6.35;;;9.90;99.90;;;;;;6012233;23;20008;-77
2023/01/06 06:38:56;;;;;;;11.63;6.70;;;9.90;99.90;;;;;;5987030;23;20024;-78
2023/01/06 06:41:23;;;;;;;10.00;6.25;;;9.90;99.90;;;;;;5987006;23;20023;-77
2023/01/06 06:43:50;;;;;;;13.32;8.23;;;9.80;99.90;;;;;;5964117;23;20011;-77
2023/01/06 06:46:16;;;;;;;10.50;7.35;;;9.80;99.90;;;;;;5963785;23;20464;-79
2023/01/06 06:48:42;;;;;;;11.20;7.03;;;9.80;99.90;;;;;;5964315;23;20022;-79
2023/01/06 06:51:10;;;;;;;13.23;6.22;;;9.80;99.90;;;;;;6012477;23;20039;-80
2023/01/06 06:53:36;;;;;;;11.43;5.50;;;9.80;99.90;;;;;;6012016;23;20081;-77
2023/01/06 06:56:04;;;;;;;11.73;6.22;;;9.80;99.90;;;;;;5985860;23;20079;-79
2023/01/06 06:58:30;;;;;;;8.55;5.50;;;9.80;99.90;;;;;;5986351;23;20094;-78
2023/01/06 07:00:56;;;;;;;7.45;5.75;;;9.80;99.90;;;;;;6011747;23;20529;-77
2023/01/06 07:03:22;;;;;;;11.05;6.60;;;9.80;99.90;;;;;;6011653;23;20090;-77
2023/01/06 07:05:50;;;;;;;10.35;5.60;;;9.80;99.90;;;;;;5986813;23;20103;-77
2023/01/06 07:08:16;;;;;;;9.07;6.20;;;9.80;99.90;;;;;;5987345;23;20374;-77
2023/01/06 07:10:41;;;;;;;9.07;4.28;;;9.80;99.90;;;;;;5989269;23;20027;-77
2023/01/06 07:13:07;;;;;;;9.00;6.00;;;9.90;99.90;;;;;;5989690;23;20075;-78
2023/01/06 07:15:33;;;;;;;7.03;4.22;;;9.80;99.90;;;;;;5989693;23;20020;-79
2023/01/06 07:18:01;;;;;;;12.05;6.20;;;9.90;99.90;;;;;;5967734;23;20159;-78
2023/01/06 07:20:27;;;;;;;7.97;5.57;;;9.90;99.90;;;;;;5989253;23;20020;-79
2023/01/06 07:22:53;;;;;;;10.07;5.40;;;9.90;99.90;;;;;;5989841;23;20026;-78
2023/01/06 07:25:20;;;;;;;10.18;6.28;;;9.90;99.90;;;;;;5989567;23;20051;-78
2023/01/06 07:27:45;;;;;;;7.82;4.55;;;9.90;99.90;;;;;;5989545;23;20055;-79
2023/01/06 07:30:11;;;;;;;5.05;2.92;;;10.00;99.90;;;;;;5989897;23;20067;-78
2023/01/06 07:32:37;;;;;;;5.72;3.60;;;10.00;99.90;;;;;;5989528;23;20039;-80
2023/01/06 07:35:03;;;;;;;5.03;3.85;;;10.10;99.90;;;;;;6014798;23;20051;-77
2023/01/06 07:37:28;;;;;;;5.85;3.42;;;10.00;99.90;;;;;;5989697;23;20019;-78
2023/01/06 07:39:54;;;;;;;7.47;3.28;;;10.00;99.90;;;;;;5989393;23;20024;-78
2023/01/06 07:42:20;;;;;;;7.05;3.15;;;9.90;99.90;;;;;;5989330;23;20027;-78
2023/01/06 07:44:45;;;;;;;11.23;3.45;;;9.90;99.90;;;;;;6014709;23;20019;-76
2023/01/06 07:47:11;;;;;;;6.30;3.22;;;9.90;99.90;;;;;;5989430;23;20070;-78
2023/01/06 07:49:37;;;;;;;10.63;2.97;;;9.80;99.90;;;;;;5989685;23;20136;-76
2023/01/06 07:52:03;;;;;;;12.55;2.60;;;9.80;99.90;;;;;;5988522;23;20020;-77
2023/01/06 07:54:29;;;;;;;7.68;2.38;;;9.70;99.90;;;;;;5988829;23;20342;-78
2023/01/06 07:56:55;;;;;;;6.43;2.70;;;9.60;99.90;;;;;;6014349;23;20008;-77
2023/01/06 07:59:21;;;;;;;6.60;1.85;;;9.60;99.90;;;;;;6014045;23;20394;-77
2023/01/06 08:01:46;;;;;;;10.07;2.45;;;9.50;99.90;;;;;;5965542;23;20027;-77
2023/01/06 08:04:12;;;;;;;11.00;2.15;;;9.40;99.90;;;;;;5989009;23;20106;-77
2023/01/06 08:06:41;;;;;;;8.63;2.20;;;9.40;99.90;;;;;;5989272;23;20016;-77
2023/01/06 08:09:07;;;;;;;8.45;1.90;;;9.30;99.90;;;;;;5989718;23;20019;-77
2023/01/06 08:11:33;;;;;;;9.27;1.60;;;9.20;99.90;;;;;;6015052;23;20334;-77
2023/01/06 08:13:58;;;;;;;4.15;1.48;;;9.20;99.90;;;;;;6014511;23;20015;-77
2023/01/06 08:16:24;;;;;;;5.38;1.60;;;9.10;99.90;;;;;;5988508;23;20413;-76
2023/01/06 08:18:50;;;;;;;12.05;2.90;;;9.00;99.90;;;;;;6015213;23;20019;-77
2023/01/06 08:21:15;;;;;;;10.63;2.75;;;9.00;99.90;;;;;;5988771;23;20446;-76
2023/01/06 08:23:41;;;;;;;9.25;3.15;;;8.90;99.90;;;;;;5989089;23;20016;-77
2023/01/06 08:26:09;;;;;;;10.90;2.10;;;8.90;99.90;;;;;;5988762;23;20011;-76
2023/01/06 08:28:35;;;;;;;11.10;1.70;;;8.80;99.90;;;;;;5988625;23;20055;-77
2023/01/06 08:31:01;;;;;;;8.27;1.70;;;8.80;99.90;;;;;;5987120;23;20755;-77
2023/01/06 08:33:27;;;;;;;10.57;1.52;;;8.70;99.90;;;;;;5987960;23;20038;-75
2023/01/06 08:36:01;;;;;;;10.30;1.38;;;8.60;99.90;;;;;;6012522;23;20047;-78
2023/01/06 08:38:28;;;;;;;10.48;1.38;;;8.60;99.90;;;;;;6013044;23;20027;-77
2023/01/06 08:40:54;;;;;;;21.92;7.75;;;8.50;99.90;;;;;;5964392;23;20016;-77
2023/01/06 08:43:21;;;;;;;19.90;9.15;;;8.50;99.90;;;;;;6012835;23;20011;-76
2023/01/06 08:45:47;;;;;;;13.20;2.30;;;8.50;99.90;;;;;;5987572;23;20403;-77
2023/01/06 08:48:13;;;;;;;10.77;3.95;;;8.50;99.90;;;;;;6012401;23;20051;-76
2023/01/06 08:50:39;;;;;;;9.55;2.47;;;8.50;99.90;;;;;;6012161;23;20015;-76
2023/01/06 08:53:05;;;;;;;6.55;2.22;;;8.50;99.90;;;;;;5988482;23;20072;-76
2023/01/06 08:55:31;;;;;;;14.27;2.88;;;8.60;99.90;;;;;;6013080;23;20012;-77
2023/01/06 08:57:57;;;;;;;11.02;2.20;;;8.60;99.90;;;;;;5987743;23;20090;-75
2023/01/06 09:00:22;;;;;;;11.02;3.30;;;8.70;99.90;;;;;;6013080;23;20094;-77
2023/01/06 09:02:48;;;;;;;13.30;1.85;;;8.70;99.90;;;;;;5987528;23;20022;-76
2023/01/06 09:05:14;;;;;;;9.20;1.48;;;8.70;99.90;;;;;;5987324;23;20063;-77
2023/01/06 09:07:39;;;;;;;11.48;2.03;;;8.70;99.90;;;;;;5987007;23;20028;-77
2023/01/06 09:10:06;;;;;;;17.98;2.53;;;8.70;99.90;;;;;;6012321;23;20015;-77
2023/01/06 09:12:32;;;;;;;9.40;1.42;;;8.70;99.90;;;;;;6012504;23;20016;-76
2023/01/06 09:14:58;;;;;;;12.32;2.10;;;8.70;99.90;;;;;;5987388;23;20024;-76
2023/01/06 09:17:24;;;;;;;9.30;1.80;;;8.60;99.90;;;;;;6012276;23;20031;-78
2023/01/06 09:19:50;;;;;;;7.40;1.10;;;8.50;99.90;;;;;;5987527;23;20030;-77
2023/01/06 09:22:15;;;;;;;7.88;1.30;;;8.50;99.90;;;;;;5987440;23;20395;-77
2023/01/06 09:24:41;;;;;;;9.18;1.20;;;8.50;99.90;;;;;;6012498;23;20018;-76
2023/01/06 09:27:06;;;;;;;8.93;1.13;;;8.40;99.90;;;;;;6012423;23;20438;-76
2023/01/06 09:29:32;;;;;;;10.23;1.75;;;8.40;99.90;;;;;;5987389;23;20343;-77
2023/01/06 09:31:57;;;;;;;9.85;1.30;;;8.40;99.90;;;;;;5986635;23;20023;-76
2023/01/06 09:34:23;;;;;;;9.73;1.60;;;8.50;99.90;;;;;;6012533;23;20012;-77
2023/01/06 09:36:49;;;;;;;10.40;1.65;;;8.40;99.90;;;;;;5987183;23;20019;-77
2023/01/06 09:39:14;;;;;;;11.85;2.22;;;8.50;99.90;;;;;;6012529;23;20023;-76
2023/01/06 09:42:13;;;;;;;7.00;1.50;;;8.50;99.90;;;;;;5987468;23;20386;-77
2023/01/06 09:44:55;;;;;;;13.13;1.38;;;8.50;99.90;;;;;;6012378;23;20034;-77
2023/01/06 09:47:46;;;;;;;10.57;2.50;;;8.50;99.90;;;;;;5988357;23;20016;-76
2023/01/06 09:50:34;;;;;;;11.10;2.03;;;8.50;99.90;;;;;;5964180;23;20020;-77
2023/01/06 09:53:16;;;;;;;6.40;1.17;;;8.60;99.90;;;;;;5987391;23;20055;-78
2023/01/06 09:55:56;;;;;;;11.50;1.90;;;8.60;99.90;;;;;;5987333;23;20060;-77
2023/01/06 09:58:36;;;;;;;10.77;1.40;;;8.70;99.90;;;;;;6012506;23;20402;-75
2023/01/06 10:01:09;;;;;;;7.68;1.33;;;8.70;99.90;;;;;;6012110;23;20007;-77
2023/01/06 10:03:35;;;;;;;9.82;1.60;;;8.80;99.90;;;;;;6012952;23;20023;-76
2023/01/06 10:06:07;;;;;;;10.95;1.95;;;8.80;99.90;;;;;;5987097;23;20016;-76
2023/01/06 10:09:00;;;;;;;15.48;2.03;;;8.90;99.90;;;;;;5986725;23;20056;-77
2023/01/06 10:11:31;;;;;;;7.10;0.85;;;8.90;99.90;;;;;;5986794;23;20030;-76
2023/01/06 10:14:15;;;;;;;14.25;1.52;;;9.00;99.90;;;;;;6012341;23;20083;-78
2023/01/06 10:16:46;;;;;;;9.32;1.15;;;9.10;99.90;;;;;;5964352;23;20395;-78
2023/01/06 10:19:18;;;;;;;12.10;1.48;;;9.10;99.90;;;;;;5986732;23;20016;-78
2023/01/06 10:21:53;;;;;;;10.38;1.80;;;9.10;99.90;;;;;;6011921;23;20027;-76
2023/01/06 10:24:19;;;;;;;12.70;1.70;;;9.20;99.90;;;;;;5986807;23;20426;-78
2023/01/06 10:26:52;;;;;;;11.32;1.27;;;9.20;99.90;;;;;;5986990;23;20023;-77
2023/01/06 10:29:19;;;;;;;12.00;1.85;;;9.30;99.90;;;;;;5986728;23;20450;-76
2023/01/06 10:31:48;;;;;;;7.70;1.10;;;9.40;99.90;;;;;;5986579;23;20062;-76
2023/01/06 10:34:34;;;;;;;11.15;1.75;;;9.50;99.90;;;;;;6011684;23;20320;-77
2023/01/06 10:37:09;;;;;;;17.50;1.83;;;9.50;99.90;;;;;;6012366;23;20018;-77
2023/01/06 10:39:37;;;;;;;14.90;2.85;;;9.50;99.90;;;;;;5986918;23;20030;-76
2023/01/06 10:44:59;;;;;;;7.55;1.45;;;9.60;99.90;;;;;;6013691;23;20022;-77
2023/01/06 10:47:28;;;;;;;9.88;1.60;;;9.60;99.90;;;;;;5966657;23;20051;-76
2023/01/06 10:49:54;;;;;;;11.43;1.90;;;9.70;99.90;;;;;;5966805;23;20020;-76
2023/01/06 10:52:21;;;;;;;9.68;1.50;;;9.80;99.90;;;;;;6014942;23;20068;-77
2023/01/06 10:54:51;;;;;;;10.32;1.58;;;9.80;99.90;;;;;;6015188;23;20427;-76
2023/01/06 10:57:28;;;;;;;5.78;1.13;;;9.90;99.90;;;;;;5989475;23;20020;-76
2023/01/06 11:00:14;;;;;;;7.00;1.30;;;10.00;99.90;;;;;;5990372;23;20020;-77
2023/01/06 11:02:48;;;;;;;14.75;1.90;;;10.10;99.90;;;;;;5989592;23;20016;-75
2023/01/06 11:05:21;;;;;;;11.02;2.80;;;10.20;99.90;;;;;;5989937;23;20338;-76
2023/01/06 11:08:14;;;;;;;8.25;1.40;;;10.10;99.90;;;;;;5989749;23;20026;-76
2023/01/06 11:10:49;;;;;;;6.00;1.17;;;10.20;99.90;;;;;;5989529;23;20027;-77
2023/01/06 11:13:25;;;;;;;10.88;1.50;;;10.30;99.90;;;;;;5989427;23;20031;-77
2023/01/06 11:15:52;;;;;;;13.75;1.88;;;10.30;99.90;;;;;;5989631;23;20413;-77
2023/01/06 11:18:36;;;;;;;11.18;2.95;;;10.50;99.90;;;;;;6014605;23;20068;-77
2023/01/06 11:21:11;;;;;;;9.40;1.70;;;10.60;99.90;;;;;;5989634;23;20008;-77
2023/01/06 11:23:39;;;;;;;11.88;1.88;;;10.60;99.90;;;;;;6014732;23;20319;-76
2023/01/06 11:26:21;;;;;;;21.55;6.68;;;10.40;99.90;;;;;;5966425;23;20086;-77
2023/01/06 11:28:54;;;;;;;10.35;1.88;;;10.40;99.90;;;;;;6014759;23;20018;-78
2023/01/06 11:31:24;;;;;;;10.88;1.75;;;10.50;99.90;;;;;;6014882;23;20015;-76
2023/01/06 11:33:54;;;;;;;7.20;1.55;;;10.50;99.90;;;;;;6014908;23;20087;-77
2023/01/06 11:36:22;;;;;;;9.80;1.65;;;10.40;99.90;;;;;;6015034;23;20016;-77
2023/01/06 11:38:54;;;;;;;9.15;1.40;;;10.40;99.90;;;;;;6015033;23;20019;-76
2023/01/06 11:41:31;;;;;;;15.32;1.75;;;10.30;99.90;;;;;;5989489;23;20047;-77
2023/01/06 11:44:28;;;;;;;8.52;1.65;;;10.30;99.90;;;;;;6015000;23;20450;-76
2023/01/06 11:46:59;;;;;;;;;;;10.30;99.90;;;;;;6003302;23;20365;-76
2023/01/06 11:49:37;;;;;;;12.93;2.00;;;10.40;99.90;;;;;;6014981;23;19933;-75
2023/01/06 11:52:31;;;;;;;8.57;1.80;;;10.50;99.90;;;;;;5989443;23;20027;-76
2023/01/06 11:55:06;;;;;;;12.88;1.65;;;10.60;99.90;;;;;;5988486;23;20020;-76
2023/01/06 11:58:04;;;;;;;11.52;1.52;;;10.60;99.90;;;;;;5988010;23;20105;-77
2023/01/06 12:00:51;;;;;;;12.13;1.48;;;10.60;99.90;;;;;;6012843;23;20016;-77
2023/01/06 12:03:31;;;;;;;8.77;1.42;;;10.50;99.90;;;;;;5986348;23;20393;-77
2023/01/06 12:06:03;;;;;;;10.38;1.55;;;10.40;99.90;;;;;;5963158;23;20008;-75
2023/01/06 12:08:46;;;;;;;10.23;1.35;;;10.30;99.90;;;;;;5986261;23;20047;-76
2023/01/06 12:11:32;;;;;;;12.25;1.67;;;10.30;99.90;;;;;;6011589;23;20050;-77
2023/01/06 12:13:58;;;;;;;14.35;1.85;;;10.20;99.90;;;;;;5987034;23;20027;-77
2023/01/06 12:16:37;;;;;;;9.00;1.35;;;10.10;99.90;;;;;;6011578;23;20015;-77
2023/01/06 12:19:15;;;;;;;11.27;1.65;;;10.10;99.90;;;;;;5986436;23;20525;-77
2023/01/06 12:21:41;;;;;;;14.07;2.65;;;10.00;99.90;;;;;;6011510;23;20075;-76
2023/01/06 12:24:12;;;;;;;11.15;1.40;;;10.00;99.90;;;;;;6011457;23;20091;-77
2023/01/06 12:26:38;;;;;;;18.73;2.17;;;10.00;99.90;;;;;;6011405;23;20016;-78
2023/01/06 12:29:06;;;;;;;13.25;1.70;;;9.90;99.90;;;;;;5964508;23;20063;-74
2023/01/06 12:32:17;;;;;;;11.68;1.80;;;10.00;99.90;;;;;;5989124;23;20143;-74
2023/01/06 12:34:47;;;;;;;11.52;1.85;;;10.00;99.90;;;;;;5926102;24;20109;-75
2023/01/06 12:37:36;;;;;;;10.40;2.22;;;10.00;99.90;;;;;;5925828;24;20440;-77
2023/01/06 12:40:13;;;;;;;9.30;1.88;;;10.00;99.90;;;;;;5970333;23;20342;-77
2023/01/06 12:42:54;;;;;;;11.73;2.25;;;10.10;99.90;;;;;;5964049;23;20351;-78
2023/01/06 12:45:32;;;;;;;12.43;2.03;;;10.00;99.90;;;;;;5986757;23;20060;-80
2023/01/06 12:48:00;;;;;;;16.35;2.03;;;10.00;99.90;;;;;;5986848;23;20059;-77
2023/01/06 12:50:46;;;;;;;16.02;2.50;;;10.00;99.90;;;;;;5986244;23;20342;-77
2023/01/06 12:53:24;;;;;;;15.07;2.90;;;10.00;99.90;;;;;;6011655;23;20084;-77
2023/01/06 12:56:00;;;;;;;14.80;2.55;;;9.90;99.90;;;;;;5986475;23;20351;-78
2023/01/06 12:58:53;;;;;;;11.93;2.10;;;9.80;99.90;;;;;;6010972;23;20019;-77
2023/01/06 13:01:46;;;;;;;11.52;2.03;;;9.90;99.90;;;;;;5834203;23;4279422;-78
2023/01/06 13:04:30;;;;;;;12.35;1.67;;;9.80;99.90;;;;;;6012838;23;20016;-77
2023/01/06 13:07:27;;;;;;;11.32;2.20;;;9.80;99.90;;;;;;5987529;23;20011;-76
2023/01/06 13:09:52;;;;;;;14.05;2.67;;;9.80;99.90;;;;;;6012848;23;20023;-76
2023/01/06 13:12:27;;;;;;;13.23;2.70;;;9.80;99.90;;;;;;5987828;23;20334;-77
2023/01/06 13:14:57;;;;;;;15.32;4.65;;;9.70;99.90;;;;;;5987665;23;20016;-77
2023/01/06 13:17:40;;;;;;;12.80;3.08;;;9.70;99.90;;;;;;5987105;23;20022;-78
2023/01/06 13:20:18;;;;;;;11.15;2.47;;;9.70;99.90;;;;;;5964042;23;20048;-77
2023/01/06 13:22:54;;;;;;;13.63;2.42;;;9.70;99.90;;;;;;6012340;23;20334;-76
2023/01/06 13:26:08;;;;;;;14.15;2.78;;;9.70;99.90;;;;;;6012725;23;20015;-77
2023/01/06 13:29:12;;;;;;;12.98;3.70;;;9.70;99.90;;;;;;5998883;23;20020;-77
2023/01/06 13:32:02;;;;;;;15.20;2.60;;;9.60;99.90;;;;;;5987433;23;20094;-77
2023/01/06 13:34:46;;;;;;;21.17;4.95;;;9.60;99.90;;;;;;5963572;23;20342;-76
2023/01/06 13:37:21;;;;;;;12.35;2.33;;;9.60;99.90;;;;;;6012163;23;20024;-76
2023/01/06 13:39:57;;;;;;;16.13;3.10;;;9.60;99.90;;;;;;5986551;23;20060;-77
2023/01/06 13:42:46;;;;;;;12.23;2.20;;;9.60;99.90;;;;;;5987437;23;20315;-76
2023/01/06 13:45:24;;;;;;;13.00;2.30;;;9.60;99.90;;;;;;5975776;23;20012;-76
2023/01/06 13:47:51;;;;;;;9.80;1.80;;;9.50;99.90;;;;;;5986542;23;20351;-79
2023/01/06 13:50:19;;;;;;;12.65;2.40;;;9.50;99.90;;;;;;5986457;23;20015;-77
2023/01/06 13:52:45;;;;;;;10.48;1.85;;;9.50;99.90;;;;;;6011613;23;20023;-77
2023/01/06 13:55:35;;;;;;;13.75;2.33;;;9.50;99.90;;;;;;6011411;23;20007;-76
2023/01/06 13:58:27;;;;;;;9.88;2.22;;;9.50;99.90;;;;;;6011147;23;20091;-76
2023/01/06 14:01:20;;;;;;;15.25;2.63;;;9.50;99.90;;;;;;5986088;23;20454;-77
2023/01/06 14:03:48;;;;;;;17.33;3.47;;;9.40;99.90;;;;;;5954347;23;20345;-76
2023/01/06 14:06:22;;;;;;;14.40;3.38;;;9.50;99.90;;;;;;6011310;23;20015;-76
2023/01/06 14:08:57;;;;;;;17.13;4.13;;;9.50;99.90;;;;;;5986240;23;20328;-75
2023/01/06 14:11:28;;;;;;;17.73;3.13;;;9.40;99.90;;;;;;5962949;23;20575;-76
2023/01/06 14:13:57;;;;;;;11.60;2.85;;;9.50;99.90;;;;;;6011354;23;20039;-75
2023/01/06 14:16:38;;;;;;;20.27;3.92;;;9.40;99.90;;;;;;6011425;23;20083;-77
2023/01/06 14:19:16;;;;;;;12.88;2.78;;;9.50;99.90;;;;;;5987150;23;20048;-76
2023/01/06 14:21:42;;;;;;;11.32;2.38;;;9.40;99.90;;;;;;5986068;23;20015;-77
2023/01/06 14:24:30;;;;;;;18.13;2.60;;;9.40;99.90;;;;;;6011096;23;20012;-76
2023/01/06 14:27:01;;;;;;;12.30;2.55;;;9.40;99.90;;;;;;6011788;23;20422;-75
2023/01/06 14:29:41;;;;;;;18.08;2.92;;;9.40;99.90;;;;;;6011616;23;20015;-77
2023/01/06 14:32:36;;;;;;;14.77;2.63;;;9.30;99.90;;;;;;5986113;23;20094;-76
2023/01/06 14:35:11;;;;;;;19.00;3.40;;;9.40;99.90;;;;;;5973187;23;20453;-76
2023/01/06 14:37:49;;;;;;;16.33;3.70;;;9.30;99.90;;;;;;5986117;23;20015;-75
2023/01/06 14:40:32;;;;;;;20.40;4.85;;;9.30;99.90;;;;;;5986055;23;20015;-76
2023/01/06 14:43:01;;;;;;;18.35;4.15;;;9.30;99.90;;;;;;5963508;23;20360;-76
2023/01/06 14:45:34;;;;;;;17.33;3.65;;;9.30;99.90;;;;;;5986012;23;20127;-76
2023/01/06 14:48:06;;;;;;;12.82;3.10;;;9.20;99.90;;;;;;6011501;23;20020;-77
2023/01/06 14:50:38;;;;;;;19.38;4.72;;;9.20;99.90;;;;;;6011127;23;20439;-75
2023/01/06 14:53:12;;;;;;;11.95;2.75;;;9.20;99.90;;;;;;6011377;23;20019;-76
2023/01/06 14:55:42;;;;;;;13.60;2.50;;;9.20;99.90;;;;;;5986703;23;20015;-75
2023/01/06 14:58:26;;;;;;;11.90;2.97;;;9.10;99.90;;;;;;6011470;23;20016;-75
2023/01/06 15:00:52;;;;;;;9.48;2.13;;;9.10;99.90;;;;;;6011690;23;20024;-76
2023/01/06 15:03:21;;;;;;;11.90;2.35;;;9.10;99.90;;;;;;6011513;23;20016;-76
2023/01/06 15:05:46;;;;;;;11.70;1.88;;;9.10;99.90;;;;;;6011000;23;20086;-76
2023/01/06 15:08:12;;;;;;;12.68;2.58;;;9.10;99.90;;;;;;6011436;23;20051;-76
2023/01/06 15:10:47;;;;;;;19.15;2.25;;;9.00;99.90;;;;;;5985891;23;20020;-75
2023/01/06 15:13:29;;;;;;;11.95;2.28;;;9.00;99.90;;;;;;5985920;23;20394;-77
2023/01/06 15:16:17;;;;;;;9.45;1.88;;;8.90;99.90;;;;;;5986005;23;20023;-76
2023/01/06 15:18:45;;;;;;;10.60;2.55;;;8.90;99.90;;;;;;5962823;23;20069;-75
2023/01/06 15:21:10;;;;;;;12.90;2.33;;;8.90;99.90;;;;;;6011351;23;20064;-75
2023/01/06 15:23:42;;;;;;;12.95;2.63;;;8.90;99.90;;;;;;5986134;23;20375;-75
2023/01/06 15:26:32;;;;;;;11.60;2.00;;;8.80;99.90;;;;;;5986104;23;20011;-77
2023/01/06 15:29:02;;;;;;;9.38;1.75;;;8.80;99.90;;;;;;6010972;23;20090;-76
2023/01/06 15:31:36;;;;;;;13.80;1.58;;;8.80;99.90;;;;;;6012295;23;20016;-76
2023/01/06 15:34:13;;;;;;;14.23;1.80;;;8.80;99.90;;;;;;5987798;23;20016;-74
2023/01/06 15:36:43;;;;;;;12.52;1.70;;;8.70;99.90;;;;;;5987573;23;20020;-76
2023/01/06 15:39:12;;;;;;;12.23;2.17;;;8.70;99.90;;;;;;6013136;23;20338;-76
2023/01/06 15:41:39;;;;;;;10.85;1.40;;;8.70;99.90;;;;;;5987586;23;20060;-75
2023/01/06 15:44:26;;;;;;;13.75;2.20;;;8.70;99.90;;;;;;6013061;23;20012;-75
2023/01/06 15:46:57;;;;;;;15.20;2.40;;;8.60;99.90;;;;;;5964488;23;20020;-76
2023/01/06 15:49:27;;;;;;;12.88;2.58;;;8.60;99.90;;;;;;6013051;23;20019;-75
2023/01/06 15:52:06;;;;;;;16.65;2.85;;;8.60;99.90;;;;;;6012967;23;20037;-77
2023/01/06 15:54:35;;;;;;;11.57;2.00;;;8.50;99.90;;;;;;6013099;23;20075;-77
2023/01/06 15:57:01;;;;;;;11.70;2.22;;;8.50;99.90;;;;;;6012677;23;20513;-76
2023/01/06 15:59:28;;;;;;;19.10;2.85;;;8.50;99.90;;;;;;6012635;23;20019;-76
2023/01/06 16:01:54;;;;;;;10.25;2.50;;;8.50;99.90;;;;;;6012490;23;20022;-76
2023/01/06 16:04:22;;;;;;;15.45;2.90;;;8.50;99.90;;;;;;6013050;23;20040;-76
2023/01/06 16:06:48;;;;;;;14.70;3.50;;;8.50;99.90;;;;;;5987821;23;20016;-77
2023/01/06 16:09:24;;;;;;;16.83;3.08;;;8.50;99.90;;;;;;5989031;23;20070;-76
2023/01/06 16:12:02;;;;;;;13.43;2.67;;;8.40;99.90;;;;;;5987991;23;20091;-76
2023/01/06 16:14:27;;;;;;;13.25;2.58;;;8.40;99.90;;;;;;5987707;23;20468;-78
2023/01/06 16:17:10;;;;;;;12.85;2.40;;;8.40;99.90;;;;;;5987744;23;20023;-77
2023/01/06 16:19:49;;;;;;;12.60;2.50;;;8.30;99.90;;;;;;6013156;23;20498;-76
2023/01/06 16:22:36;;;;;;;11.57;2.58;;;8.30;99.90;;;;;;5987615;23;20016;-77
2023/01/06 16:25:20;;;;;;;12.55;2.70;;;8.20;99.90;;;;;;6012997;23;20018;-76
2023/01/06 16:27:48;;;;;;;7.97;2.40;;;8.20;99.90;;;;;;6012763;23;20019;-77
2023/01/06 16:30:13;;;;;;;11.82;2.38;;;8.20;99.90;;;;;;5964383;23;20414;-77
2023/01/06 16:32:41;;;;;;;7.40;2.13;;;8.10;99.90;;;;;;5988780;23;20019;-76
2023/01/06 16:35:16;;;;;;;13.77;2.80;;;8.20;99.90;;;;;;5987626;23;20075;-76
2023/01/06 16:37:43;;;;;;;14.43;4.03;;;8.10;99.90;;;;;;5987463;23;20023;-76
2023/01/06 16:40:11;;;;;;;10.00;2.83;;;8.00;99.90;;;;;;6012589;23;20012;-76
2023/01/06 16:42:38;;;;;;;9.57;2.80;;;8.00;99.90;;;;;;5986998;23;20015;-76
2023/01/06 16:45:24;;;;;;;13.95;2.58;;;8.00;99.90;;;;;;5987536;23;20020;-77
2023/01/06 16:47:51;;;;;;;11.48;2.25;;;8.00;99.90;;;;;;6012987;23;20015;-76
2023/01/06 16:50:35;;;;;;;8.13;2.70;;;7.90;99.90;;;;;;5987763;23;20019;-76
2023/01/06 16:53:09;;;;;;;22.25;3.58;;;7.90;99.90;;;;;;5987753;23;20102;-76
2023/01/06 16:55:39;;;;;;;17.15;3.67;;;7.90;99.90;;;;;;5987540;23;20027;-75
2023/01/06 16:58:14;;;;;;;18.83;3.25;;;7.90;99.90;;;;;;5987653;23;20079;-76
2023/01/06 17:00:42;;;;;;;12.85;4.07;;;7.90;99.90;;;;;;6013484;23;20016;-77
2023/01/06 17:03:15;;;;;;;15.48;3.95;;;7.90;99.90;;;;;;5987627;23;20022;-75
2023/01/06 17:05:40;;;;;;;15.27;3.78;;;7.80;99.90;;;;;;6012840;23;20136;-77
2023/01/06 17:08:21;;;;;;;10.20;2.90;;;7.80;99.90;;;;;;5987845;23;20023;-75
2023/01/06 17:10:47;;;;;;;17.02;4.00;;;7.80;99.90;;;;;;5987816;23;20023;-77
2023/01/06 17:16:04;;;;;;;14.38;3.88;;;7.80;99.90;;;;;;6013143;23;20073;-77
2023/01/06 17:18:30;;;;;;;12.57;3.88;;;7.70;99.90;;;;;;5987957;23;20091;-77